Time;durP1;ratioP1;P1;durP2;ratioP2;P2;SDS_P1;SDS_P2;PMS_P1;PMS_P2;Temp;Humidity;BMP_temperature;BMP_pressure;BME280_temperature;BME280_humidity;BME280_pressure;Samples;Min_cycle;Max_cycle;Signal;HPM_P1;HPM_P2
2023/01/27 00:00:23;;;;;;;19.10;4.97;;;4.00;99.90;;;;;;5018126;28;20294;-47
2023/01/27 00:02:49;;;;;;;28.07;4.57;;;4.00;99.90;;;;;;5035911;28;20327;-45
2023/01/27 00:05:15;;;;;;;18.60;4.40;;;3.90;99.90;;;;;;5018313;28;20184;-45
2023/01/27 00:07:44;;;;;;;22.93;4.40;;;3.90;99.90;;;;;;5035454;28;20208;-45
2023/01/27 00:10:13;;;;;;;18.27;4.70;;;3.90;99.90;;;;;;5035834;28;20181;-44
2023/01/27 00:15:23;;;;;;;19.63;4.60;;;3.80;99.90;;;;;;5036158;28;20596;-45
2023/01/27 00:17:48;;;;;;;14.07;4.47;;;3.80;99.90;;;;;;5036006;28;20185;-46
2023/01/27 00:24:34;;;;;;;23.53;4.50;;;3.80;99.90;;;;;;5035756;28;20181;-46
2023/01/27 00:25:49;;;;;;;12.40;4.30;;;3.70;99.90;;;;;;5035784;28;20240;-46
2023/01/27 00:28:21;;;;;;;18.57;5.20;;;3.70;99.90;;;;;;5035602;28;20177;-44
2023/01/27 00:30:51;;;;;;;17.50;4.37;;;3.70;99.90;;;;;;5035887;28;20160;-45
2023/01/27 00:33:28;;;;;;;17.53;4.23;;;3.80;99.90;;;;;;5035585;28;20197;-45
2023/01/27 00:36:06;;;;;;;16.47;4.30;;;3.80;99.90;;;;;;5018109;28;20651;-46
2023/01/27 00:38:33;;;;;;;20.37;4.80;;;3.80;99.90;;;;;;5035863;28;20554;-45
2023/01/27 00:41:14;;;;;;;22.17;5.47;;;3.70;99.90;;;;;;5036063;28;20192;-46
2023/01/27 00:43:40;;;;;;;23.13;5.87;;;3.70;99.90;;;;;;5035458;28;20200;-45
2023/01/27 00:46:07;;;;;;;20.03;5.10;;;3.70;99.90;;;;;;5035723;28;20531;-47
2023/01/27 00:48:32;;;;;;;19.07;5.97;;;3.70;99.90;;;;;;5035603;28;20203;-45
2023/01/27 00:50:58;;;;;;;17.97;5.33;;;3.60;99.90;;;;;;5035361;28;20681;-45
2023/01/27 00:53:23;;;;;;;13.70;5.43;;;3.60;99.90;;;;;;5035106;28;20201;-45
2023/01/27 00:55:49;;;;;;;15.20;5.47;;;3.60;99.90;;;;;;5035037;28;20684;-45
2023/01/27 00:58:15;;;;;;;19.27;6.40;;;3.60;99.90;;;;;;5035002;28;20597;-45
2023/01/27 01:00:40;;;;;;;12.47;5.97;;;3.60;99.90;;;;;;5017185;28;20639;-46
2023/01/27 01:03:06;;;;;;;16.57;5.93;;;3.60;99.90;;;;;;5035091;28;20262;-46
2023/01/27 01:05:32;;;;;;;16.30;6.63;;;3.60;99.90;;;;;;5017177;28;20217;-46
2023/01/27 01:07:57;;;;;;;15.77;5.97;;;3.60;99.90;;;;;;5034971;28;20326;-45
2023/01/27 01:10:23;;;;;;;14.60;6.50;;;3.70;99.90;;;;;;5034782;28;20177;-45
2023/01/27 01:12:49;;;;;;;11.50;6.00;;;3.70;99.90;;;;;;5034608;28;20226;-45
2023/01/27 01:15:14;;;;;;;11.60;6.90;;;3.60;99.90;;;;;;5034600;28;20203;-45
2023/01/27 01:17:40;;;;;;;17.47;6.90;;;3.60;99.90;;;;;;5034369;28;20213;-45
2023/01/27 01:20:06;;;;;;;18.40;5.83;;;3.60;99.90;;;;;;5034365;28;20179;-50
2023/01/27 01:22:32;;;;;;;13.53;5.27;;;3.60;99.90;;;;;;5034350;28;20209;-49
2023/01/27 01:24:57;;;;;;;11.70;4.97;;;3.60;99.90;;;;;;5034445;28;20180;-50
2023/01/27 01:27:23;;;;;;;8.87;4.73;;;3.60;99.90;;;;;;5034607;28;20632;-50
2023/01/27 01:29:48;;;;;;;12.47;4.50;;;3.60;99.90;;;;;;5034335;28;20181;-49
2023/01/27 01:32:14;;;;;;;10.13;4.20;;;3.60;99.90;;;;;;5034219;28;20211;-50
2023/01/27 01:34:40;;;;;;;9.67;4.20;;;3.70;99.90;;;;;;5034248;28;20200;-50
2023/01/27 01:37:05;;;;;;;13.23;3.80;;;3.60;99.90;;;;;;5034699;28;20180;-50
2023/01/27 01:39:31;;;;;;;11.73;3.77;;;3.60;99.90;;;;;;5034229;28;20625;-51
2023/01/27 01:41:57;;;;;;;7.73;3.30;;;3.60;99.90;;;;;;5034170;28;20676;-49
2023/01/27 01:44:25;;;;;;;9.77;3.43;;;3.60;99.90;;;;;;5034326;28;20549;-50
2023/01/27 01:46:50;;;;;;;9.17;3.30;;;3.70;99.90;;;;;;5033953;28;20181;-50
2023/01/27 01:49:20;;;;;;;6.93;3.00;;;3.70;99.90;;;;;;5034864;28;20208;-49
2023/01/27 01:51:50;;;;;;;11.37;3.03;;;3.60;99.90;;;;;;5016919;28;20181;-48
2023/01/27 01:54:31;;;;;;;7.33;2.60;;;3.60;99.90;;;;;;5033884;28;20207;-51
2023/01/27 01:57:24;;;;;;;8.23;2.60;;;3.60;99.90;;;;;;5016195;28;20188;-50
2023/01/27 01:59:56;;;;;;;10.90;2.87;;;3.60;99.90;;;;;;5033797;28;20200;-50
2023/01/27 02:02:23;;;;;;;7.57;2.60;;;3.60;99.90;;;;;;5033706;28;20223;-50
2023/01/27 02:05:00;;;;;;;14.67;3.57;;;3.60;99.90;;;;;;4999776;28;20185;-50
2023/01/27 02:07:30;;;;;;;13.27;3.17;;;3.70;99.90;;;;;;5015914;28;20613;-51
2023/01/27 02:09:56;;;;;;;8.07;2.50;;;3.70;99.90;;;;;;5033588;28;20187;-50
2023/01/27 02:12:22;;;;;;;10.83;3.00;;;3.70;99.90;;;;;;5033818;28;20295;-52
2023/01/27 02:14:47;;;;;;;11.33;3.20;;;3.70;99.90;;;;;;5033917;28;20223;-51
2023/01/27 02:17:13;;;;;;;12.00;3.93;;;3.70;99.90;;;;;;5033594;28;20185;-50
2023/01/27 02:19:45;;;;;;;10.80;4.03;;;3.70;99.90;;;;;;5016542;28;20184;-49
2023/01/27 02:22:16;;;;;;;18.63;5.67;;;3.70;99.90;;;;;;5015659;28;20254;-49
2023/01/27 02:24:50;;;;;;;13.83;5.83;;;3.70;99.90;;;;;;5015866;28;20173;-50
2023/01/27 02:27:16;;;;;;;14.17;5.57;;;3.70;99.90;;;;;;5033999;28;20214;-51
2023/01/27 02:29:41;;;;;;;13.50;5.67;;;3.70;99.90;;;;;;5033237;28;20645;-51
2023/01/27 02:32:07;;;;;;;11.87;5.10;;;3.70;99.90;;;;;;5015640;28;20208;-50
2023/01/27 02:34:36;;;;;;;12.07;4.83;;;3.70;99.90;;;;;;5033656;28;20180;-50
2023/01/27 02:37:06;;;;;;;12.23;4.80;;;3.70;99.90;;;;;;5033522;28;20260;-51
2023/01/27 02:39:40;;;;;;;17.00;5.63;;;3.70;99.90;;;;;;5033401;28;20260;-51
2023/01/27 02:42:09;;;;;;;10.43;4.50;;;3.70;99.90;;;;;;5033911;28;20224;-50
2023/01/27 02:44:35;;;;;;;13.90;5.23;;;3.70;99.90;;;;;;5033279;28;20545;-51
2023/01/27 02:47:00;;;;;;;15.00;6.20;;;3.70;99.90;;;;;;5033223;28;20184;-51
2023/01/27 02:49:26;;;;;;;18.10;6.07;;;3.60;99.90;;;;;;5034051;28;20181;-49
2023/01/27 02:51:52;;;;;;;10.63;6.67;;;3.70;99.90;;;;;;5033741;28;20205;-49
2023/01/27 02:54:17;;;;;;;17.33;7.07;;;3.60;99.90;;;;;;5033395;28;20259;-52
2023/01/27 02:56:43;;;;;;;15.63;6.47;;;3.60;99.90;;;;;;5015665;28;20193;-49
2023/01/27 02:59:08;;;;;;;13.27;6.87;;;3.60;99.90;;;;;;5033060;28;20737;-50
2023/01/27 03:01:34;;;;;;;29.00;9.30;;;3.60;99.90;;;;;;5033441;28;20200;-51
2023/01/27 03:04:00;;;;;;;17.23;8.07;;;3.60;99.90;;;;;;5034026;28;20180;-50
2023/01/27 03:06:26;;;;;;;18.13;9.00;;;3.60;99.90;;;;;;5033722;28;20181;-50
2023/01/27 03:08:52;;;;;;;19.73;8.43;;;3.60;99.90;;;;;;5033111;28;20188;-49
2023/01/27 03:12:18;;;;;;;19.80;9.03;;;3.60;99.90;;;;;;5033408;28;20260;-50
2023/01/27 03:14:03;;;;;;;20.57;10.47;;;3.60;99.90;;;;;;5032877;28;20272;-48
2023/01/27 03:19:12;;;;;;;19.70;9.13;;;3.60;99.90;;;;;;5033245;28;20181;-49
2023/01/27 03:21:38;;;;;;;20.17;10.97;;;3.70;99.90;;;;;;5033124;28;20201;-50
2023/01/27 03:24:04;;;;;;;17.30;11.73;;;3.70;99.90;;;;;;5032984;28;20181;-50
2023/01/27 03:26:29;;;;;;;23.07;12.00;;;3.70;99.90;;;;;;5033172;28;20212;-51
2023/01/27 03:31:39;;;;;;;19.30;11.47;;;3.60;99.90;;;;;;5033417;28;20637;-43
2023/01/27 03:34:05;;;;;;;25.03;10.93;;;3.60;99.90;;;;;;5032751;28;20230;-44
2023/01/27 03:47:26;;;;;;;17.73;11.20;;;3.60;99.90;;;;;;5036730;28;20530;-43
2023/01/27 03:49:51;;;;;;;21.97;11.80;;;3.60;99.90;;;;;;5036230;28;20169;-44
2023/01/27 03:52:17;;;;;;;18.50;9.97;;;3.60;99.90;;;;;;5036412;28;20535;-42
2023/01/27 03:54:42;;;;;;;20.33;11.10;;;3.50;99.90;;;;;;5018435;28;20553;-45
2023/01/27 03:57:08;;;;;;;13.57;8.00;;;3.50;99.90;;;;;;5036097;28;20180;-45
2023/01/27 03:59:34;;;;;;;18.33;10.33;;;3.40;99.90;;;;;;5035974;28;20204;-45
2023/01/27 04:07:28;;;;;;;15.30;9.40;;;3.40;99.90;;;;;;5036234;28;20172;-44
2023/01/27 04:09:54;;;;;;;17.13;8.90;;;3.30;99.90;;;;;;5036161;28;20177;-45
2023/01/27 04:12:20;;;;;;;15.17;8.37;;;3.30;99.90;;;;;;5018071;28;20205;-46
2023/01/27 04:14:46;;;;;;;11.97;7.43;;;3.30;99.90;;;;;;5035973;28;20579;-44
2023/01/27 04:17:13;;;;;;;14.10;7.70;;;3.30;99.90;;;;;;5035952;28;20173;-45
2023/01/27 04:19:40;;;;;;;13.03;7.17;;;3.20;99.90;;;;;;5018024;28;20185;-44
2023/01/27 04:22:05;;;;;;;9.90;5.57;;;3.20;99.90;;;;;;5035452;28;20224;-43
2023/01/27 04:24:32;;;;;;;12.07;5.53;;;3.20;99.90;;;;;;5035553;28;20177;-46
2023/01/27 04:27:03;;;;;;;10.43;6.37;;;3.20;99.90;;;;;;5035493;28;20231;-46
2023/01/27 04:29:31;;;;;;;7.07;5.07;;;3.20;99.90;;;;;;5035779;28;20180;-46
2023/01/27 04:31:57;;;;;;;11.30;6.37;;;3.10;99.90;;;;;;5035442;28;20212;-44
2023/01/27 04:34:23;;;;;;;8.20;5.73;;;3.10;99.90;;;;;;5035485;28;20181;-45
2023/01/27 04:36:49;;;;;;;10.03;5.10;;;3.10;99.90;;;;;;5035482;28;20189;-43
2023/01/27 04:39:15;;;;;;;9.03;5.67;;;3.10;99.90;;;;;;5035577;28;20185;-45
2023/01/27 04:41:42;;;;;;;10.07;5.67;;;3.10;99.90;;;;;;5035058;28;20209;-44
2023/01/27 04:44:07;;;;;;;10.37;5.03;;;3.10;99.90;;;;;;5035255;28;20173;-44
2023/01/27 04:46:33;;;;;;;8.37;4.87;;;3.10;99.90;;;;;;5035246;28;20192;-44
2023/01/27 04:48:59;;;;;;;10.93;5.93;;;3.10;99.90;;;;;;5035188;28;20173;-46
2023/01/27 04:51:26;;;;;;;9.83;5.30;;;3.10;99.90;;;;;;5035659;28;20550;-46
2023/01/27 04:53:52;;;;;;;12.23;6.70;;;3.10;99.90;;;;;;5035512;28;20221;-44
2023/01/27 04:56:24;;;;;;;12.10;6.37;;;3.10;99.90;;;;;;5035926;28;20203;-46
2023/01/27 04:58:50;;;;;;;9.37;5.57;;;3.10;99.90;;;;;;5017618;28;20180;-46
2023/01/27 05:01:15;;;;;;;13.30;7.00;;;3.10;99.90;;;;;;5035197;28;20185;-44
2023/01/27 05:03:41;;;;;;;9.83;6.47;;;3.10;99.90;;;;;;5035126;28;20196;-45
2023/01/27 05:06:11;;;;;;;11.70;6.50;;;3.00;99.90;;;;;;5035213;28;20307;-44
2023/01/27 05:08:37;;;;;;;11.20;6.40;;;3.10;99.90;;;;;;5035172;28;20212;-44
2023/01/27 05:11:03;;;;;;;14.47;7.23;;;3.00;99.90;;;;;;5034843;28;20662;-43
2023/01/27 05:13:28;;;;;;;10.50;6.90;;;3.10;99.90;;;;;;5034903;28;20197;-46
2023/01/27 05:16:11;;;;;;;14.63;8.20;;;3.10;99.90;;;;;;5035157;28;20188;-44
2023/01/27 05:18:38;;;;;;;12.77;8.13;;;3.10;99.90;;;;;;5034720;28;20180;-43
2023/01/27 05:21:05;;;;;;;15.27;9.40;;;3.00;99.90;;;;;;5017080;28;20561;-44
2023/01/27 05:23:34;;;;;;;16.63;9.53;;;3.00;99.90;;;;;;5034386;28;20301;-44
2023/01/27 05:26:07;;;;;;;21.90;10.63;;;2.90;99.90;;;;;;5034430;28;20204;-45
2023/01/27 05:28:34;;;;;;;15.40;9.53;;;2.90;99.90;;;;;;5034271;28;20248;-46
2023/01/27 05:31:11;;;;;;;18.73;10.63;;;2.90;99.90;;;;;;5034303;28;20266;-45
2023/01/27 05:33:38;;;;;;;20.20;10.50;;;2.80;99.90;;;;;;5034602;28;20269;-45
2023/01/27 05:36:05;;;;;;;19.67;11.27;;;2.80;99.90;;;;;;5017269;28;20564;-43
2023/01/27 05:38:32;;;;;;;19.53;10.43;;;2.80;99.90;;;;;;5016769;28;20177;-43
2023/01/27 05:41:04;;;;;;;17.67;11.10;;;2.80;99.90;;;;;;5034643;28;20558;-44
2023/01/27 05:43:32;;;;;;;18.47;12.17;;;2.80;99.90;;;;;;5033966;28;20242;-42
2023/01/27 05:46:08;;;;;;;24.53;12.33;;;2.80;99.90;;;;;;5034167;28;20169;-44
2023/01/27 05:48:36;;;;;;;20.03;10.73;;;2.80;99.90;;;;;;5034042;28;20173;-44
2023/01/27 05:51:01;;;;;;;19.77;12.93;;;2.70;99.90;;;;;;5034176;28;20177;-43
2023/01/27 05:53:27;;;;;;;20.63;13.03;;;2.70;99.90;;;;;;5034007;28;20566;-43
2023/01/27 05:55:53;;;;;;;22.60;12.27;;;2.70;99.90;;;;;;5034438;28;20671;-45
2023/01/27 05:58:19;;;;;;;22.17;12.40;;;2.70;99.90;;;;;;5033880;28;20540;-43
2023/01/27 06:00:45;;;;;;;21.47;9.97;;;2.70;99.90;;;;;;5033619;28;20192;-44
2023/01/27 06:03:11;;;;;;;26.23;13.93;;;2.60;99.90;;;;;;5034366;28;20209;-45
2023/01/27 06:05:37;;;;;;;24.33;14.17;;;2.60;99.90;;;;;;5033231;28;20169;-44
2023/01/27 06:08:03;;;;;;;24.37;13.43;;;2.60;99.90;;;;;;5033676;28;20226;-43
2023/01/27 06:10:28;;;;;;;23.43;14.37;;;2.60;99.90;;;;;;5015956;28;20264;-42
2023/01/27 06:12:54;;;;;;;19.63;11.10;;;2.50;99.90;;;;;;5033813;28;20280;-44
2023/01/27 06:15:20;;;;;;;18.87;10.23;;;2.60;99.90;;;;;;5015841;28;20196;-46
2023/01/27 06:17:46;;;;;;;22.93;11.67;;;2.60;99.90;;;;;;5033877;28;20263;-46
2023/01/27 06:20:11;;;;;;;19.83;10.80;;;2.60;99.90;;;;;;5034072;28;20172;-44
2023/01/27 06:22:37;;;;;;;19.60;11.27;;;2.60;99.90;;;;;;5033301;28;20219;-46
2023/01/27 06:25:03;;;;;;;20.60;11.40;;;2.60;99.90;;;;;;5033633;28;20184;-43
2023/01/27 06:27:28;;;;;;;24.27;11.83;;;2.60;99.90;;;;;;5033831;28;20714;-44
2023/01/27 06:29:54;;;;;;;14.63;8.63;;;2.60;99.90;;;;;;5034084;28;20165;-45
2023/01/27 06:32:20;;;;;;;22.60;13.23;;;2.70;99.90;;;;;;5033511;28;20223;-45
2023/01/27 06:34:45;;;;;;;22.80;12.63;;;2.60;99.90;;;;;;5033470;28;20165;-44
2023/01/27 06:37:11;;;;;;;18.03;10.77;;;2.70;99.90;;;;;;5033381;28;20188;-45
2023/01/27 06:39:36;;;;;;;26.03;14.03;;;2.70;99.90;;;;;;5033497;28;20175;-44
2023/01/27 06:42:03;;;;;;;21.47;11.80;;;2.70;99.90;;;;;;5033315;28;20685;-50
2023/01/27 06:44:29;;;;;;;23.87;12.90;;;2.70;99.90;;;;;;5033644;28;20260;-51
2023/01/27 06:46:54;;;;;;;26.37;12.40;;;2.70;99.90;;;;;;5033311;28;20205;-52
2023/01/27 06:49:20;;;;;;;23.47;12.57;;;2.70;99.90;;;;;;5033697;28;20172;-50
2023/01/27 06:51:45;;;;;;;20.63;11.53;;;2.70;99.90;;;;;;5033226;28;20200;-52
2023/01/27 06:54:11;;;;;;;18.63;10.50;;;2.70;99.90;;;;;;4999197;28;20187;-50
2023/01/27 06:56:37;;;;;;;24.43;11.50;;;2.70;99.90;;;;;;5015439;28;20215;-50
2023/01/27 06:59:02;;;;;;;25.23;12.17;;;2.70;99.90;;;;;;5033297;28;20185;-52
2023/01/27 07:01:28;;;;;;;24.03;12.23;;;2.70;99.90;;;;;;5032922;28;20189;-51
2023/01/27 07:03:53;;;;;;;23.57;12.00;;;2.70;99.90;;;;;;5033719;28;20197;-46
2023/01/27 07:06:19;;;;;;;24.57;12.63;;;2.70;99.90;;;;;;5033604;28;20184;-44
2023/01/27 07:08:46;;;;;;;22.50;12.97;;;2.80;99.90;;;;;;5033160;28;20173;-50
2023/01/27 07:11:12;;;;;;;23.23;12.07;;;2.80;99.90;;;;;;5033949;28;20527;-50
2023/01/27 07:13:38;;;;;;;24.83;13.33;;;2.70;99.90;;;;;;5015240;28;20204;-49
2023/01/27 07:16:03;;;;;;;22.40;12.43;;;2.80;99.90;;;;;;5033387;28;20553;-51
2023/01/27 07:18:29;;;;;;;26.07;13.07;;;2.80;99.90;;;;;;5037163;28;20185;-50
2023/01/27 07:20:55;;;;;;;22.53;11.73;;;2.80;99.90;;;;;;5019442;28;20711;-50
2023/01/27 07:23:20;;;;;;;26.87;14.20;;;2.70;99.90;;;;;;5036856;28;20244;-49
2023/01/27 07:25:46;;;;;;;25.93;14.03;;;2.80;99.90;;;;;;5037073;28;20652;-50
2023/01/27 07:28:12;;;;;;;22.10;12.63;;;2.80;99.90;;;;;;5036700;28;20169;-50
2023/01/27 07:30:38;;;;;;;22.93;11.33;;;2.80;99.90;;;;;;5037025;28;20177;-50
2023/01/27 07:33:05;;;;;;;23.60;11.63;;;2.80;99.90;;;;;;5036619;28;20197;-51
2023/01/27 07:35:31;;;;;;;22.40;12.03;;;2.90;99.90;;;;;;5036720;28;20181;-50
2023/01/27 07:37:57;;;;;;;23.53;13.27;;;2.90;99.90;;;;;;5036618;28;20181;-50
2023/01/27 07:40:22;;;;;;;17.00;10.63;;;2.90;99.90;;;;;;5036533;28;20188;-50
2023/01/27 07:42:48;;;;;;;20.17;11.00;;;2.90;99.90;;;;;;5018449;28;20644;-50
2023/01/27 07:45:14;;;;;;;20.67;11.87;;;2.90;99.90;;;;;;5036449;28;20181;-49
2023/01/27 07:47:39;;;;;;;20.73;11.70;;;2.90;99.90;;;;;;5018518;28;20223;-51
2023/01/27 07:50:06;;;;;;;32.10;12.23;;;2.90;99.90;;;;;;5018617;28;20197;-50
2023/01/27 07:52:32;;;;;;;20.93;11.80;;;2.90;99.90;;;;;;5018650;28;20228;-49
2023/01/27 07:54:57;;;;;;;20.63;11.50;;;2.90;99.90;;;;;;5036116;28;20618;-51
2023/01/27 07:57:23;;;;;;;20.77;10.70;;;2.90;99.90;;;;;;5036077;28;20263;-49
2023/01/27 07:59:51;;;;;;;22.00;12.07;;;2.90;99.90;;;;;;5035937;28;20676;-49
2023/01/27 08:02:17;;;;;;;19.90;11.37;;;2.90;99.90;;;;;;5035868;28;20220;-50
2023/01/27 08:04:43;;;;;;;18.77;11.13;;;2.90;99.90;;;;;;5036090;28;20172;-49
2023/01/27 08:07:08;;;;;;;21.40;10.83;;;2.90;99.90;;;;;;5036362;28;20184;-49
2023/01/27 08:09:34;;;;;;;20.27;10.53;;;2.90;99.90;;;;;;5036323;28;20184;-50
2023/01/27 08:12:00;;;;;;;20.77;10.83;;;2.90;99.90;;;;;;5036093;28;20193;-50
2023/01/27 08:14:25;;;;;;;20.80;10.73;;;3.00;99.90;;;;;;5035850;28;20542;-51
2023/01/27 08:16:51;;;;;;;18.03;11.40;;;3.00;99.90;;;;;;5018193;28;20180;-52
2023/01/27 08:19:17;;;;;;;18.53;11.73;;;3.00;99.90;;;;;;5035714;28;20181;-50
2023/01/27 08:21:43;;;;;;;18.03;10.63;;;3.10;99.90;;;;;;5036560;28;20854;-50
2023/01/27 08:24:11;;;;;;;17.30;9.70;;;3.10;99.90;;;;;;5035610;28;20589;-50
2023/01/27 08:26:37;;;;;;;15.00;9.47;;;3.10;99.90;;;;;;5018551;28;20188;-50
2023/01/27 08:29:03;;;;;;;19.67;11.37;;;3.20;99.90;;;;;;5035148;28;20656;-51
2023/01/27 08:31:29;;;;;;;16.07;10.33;;;3.20;99.90;;;;;;5035856;28;20227;-48
2023/01/27 08:33:54;;;;;;;18.57;10.30;;;3.20;99.90;;;;;;5035620;28;20200;-50
2023/01/27 08:36:22;;;;;;;17.27;10.43;;;3.20;99.90;;;;;;5035396;28;20208;-51
2023/01/27 08:38:48;;;;;;;16.00;9.80;;;3.30;99.90;;;;;;5017575;28;20203;-50
2023/01/27 08:41:19;;;;;;;15.40;9.23;;;3.30;99.90;;;;;;5035478;28;20173;-51
2023/01/27 08:43:46;;;;;;;14.47;8.57;;;3.30;99.90;;;;;;5035283;28;20608;-51
2023/01/27 08:46:12;;;;;;;16.03;10.90;;;3.30;99.90;;;;;;5035364;28;20173;-50
2023/01/27 08:48:38;;;;;;;14.47;9.10;;;3.40;99.90;;;;;;5035319;28;20176;-49
2023/01/27 08:51:05;;;;;;;16.53;9.73;;;3.40;99.90;;;;;;5035158;28;20264;-51
2023/01/27 08:53:31;;;;;;;19.70;11.27;;;3.40;99.90;;;;;;5034972;28;20568;-51
2023/01/27 08:56:01;;;;;;;18.53;12.10;;;3.50;99.90;;;;;;5035362;28;20538;-50
2023/01/27 08:58:26;;;;;;;14.50;8.77;;;3.50;99.90;;;;;;5035387;28;20624;-51
2023/01/27 09:00:52;;;;;;;17.90;10.50;;;3.50;99.90;;;;;;5001065;28;20193;-51
2023/01/27 09:03:17;;;;;;;20.37;12.33;;;3.60;99.90;;;;;;5034892;28;20262;-49
2023/01/27 09:05:43;;;;;;;17.87;10.60;;;3.60;99.90;;;;;;5017603;28;20668;-51
2023/01/27 09:08:09;;;;;;;19.00;10.80;;;3.60;99.90;;;;;;5035200;28;20535;-51
2023/01/27 09:10:39;;;;;;;17.03;10.33;;;3.70;99.90;;;;;;5034886;28;20184;-51
2023/01/27 09:13:06;;;;;;;17.33;10.97;;;3.60;99.90;;;;;;5035167;28;20221;-52
2023/01/27 09:15:34;;;;;;;16.13;10.03;;;3.60;99.90;;;;;;5035696;28;20167;-50
2023/01/27 09:18:00;;;;;;;18.37;10.13;;;3.70;99.90;;;;;;5017474;28;20191;-50
2023/01/27 09:20:26;;;;;;;20.13;13.97;;;3.70;99.90;;;;;;5034671;28;20644;-50
2023/01/27 09:22:54;;;;;;;15.40;10.17;;;3.70;99.90;;;;;;5034911;28;20217;-51
2023/01/27 09:25:19;;;;;;;17.27;11.40;;;3.70;99.90;;;;;;5017283;28;20219;-51
2023/01/27 09:27:45;;;;;;;17.93;10.43;;;3.80;99.90;;;;;;5034545;28;20177;-49
2023/01/27 09:30:13;;;;;;;14.10;10.07;;;3.80;99.90;;;;;;5016668;28;20547;-51
2023/01/27 09:32:39;;;;;;;14.67;10.30;;;3.80;99.90;;;;;;5034332;28;20192;-51
2023/01/27 09:35:06;;;;;;;13.50;10.10;;;3.80;99.90;;;;;;5016654;28;20239;-50
2023/01/27 09:37:38;;;;;;;14.83;9.47;;;3.90;99.90;;;;;;5016562;28;20327;-52
2023/01/27 09:40:11;;;;;;;13.10;9.17;;;3.90;99.90;;;;;;5015871;28;20197;-50
2023/01/27 09:43:23;;;;;;;14.03;8.83;;;4.00;99.90;;;;;;5016472;28;20239;-50
2023/01/27 09:46:03;;;;;;;12.80;9.40;;;3.90;99.90;;;;;;5034554;28;20668;-50
2023/01/27 09:48:42;;;;;;;12.27;8.67;;;4.00;99.90;;;;;;5016443;28;20169;-50
2023/01/27 09:51:29;;;;;;;11.90;9.17;;;4.00;99.90;;;;;;5034275;28;20179;-49
2023/01/27 09:54:02;;;;;;;14.83;10.07;;;4.00;99.90;;;;;;5034092;28;20203;-50
2023/01/27 09:56:36;;;;;;;14.70;9.73;;;4.10;99.90;;;;;;5034225;28;20172;-50
2023/01/27 09:59:14;;;;;;;13.93;9.43;;;4.10;99.90;;;;;;5034082;28;20177;-52
2023/01/27 10:01:42;;;;;;;13.60;9.97;;;4.10;99.90;;;;;;5033920;28;20555;-49
2023/01/27 10:04:33;;;;;;;14.83;10.80;;;4.10;99.90;;;;;;5033880;28;20224;-52
2023/01/27 10:07:34;;;;;;;14.87;10.80;;;4.20;99.90;;;;;;5033741;28;20243;-49
2023/01/27 10:10:45;;;;;;;16.37;11.07;;;4.10;99.90;;;;;;5016294;28;20165;-50
2023/01/27 10:13:26;;;;;;;12.67;9.27;;;4.20;99.90;;;;;;5029828;28;20291;-51
2023/01/27 10:16:02;;;;;;;14.03;10.53;;;4.20;99.90;;;;;;5034654;28;20525;-50
2023/01/27 10:18:46;;;;;;;10.63;7.90;;;4.20;99.90;;;;;;5034003;28;20211;-51
2023/01/27 10:21:36;;;;;;;12.97;9.17;;;4.20;99.90;;;;;;5033553;28;20235;-51
2023/01/27 10:24:32;;;;;;;14.37;8.90;;;4.30;99.90;;;;;;5033726;28;20169;-50
2023/01/27 10:27:21;;;;;;;9.23;7.37;;;4.40;99.90;;;;;;5033924;28;20192;-52
2023/01/27 10:30:23;;;;;;;11.60;9.07;;;4.40;99.90;;;;;;5033812;28;20223;-50
2023/01/27 10:33:06;;;;;;;9.27;7.00;;;4.40;99.90;;;;;;5030532;28;20248;-51
2023/01/27 10:35:47;;;;;;;13.63;8.30;;;4.50;99.90;;;;;;5033769;28;20533;-52
2023/01/27 10:38:36;;;;;;;13.53;8.37;;;4.50;99.90;;;;;;5033545;28;20533;-51
2023/01/27 10:41:05;;;;;;;10.53;7.37;;;4.50;99.90;;;;;;5033736;28;20173;-51
2023/01/27 10:44:08;;;;;;;11.93;9.13;;;4.60;99.90;;;;;;5033302;28;20235;-49
2023/01/27 10:46:58;;;;;;;11.53;8.97;;;4.70;99.90;;;;;;5033371;28;20165;-51
2023/01/27 10:49:50;;;;;;;15.80;9.87;;;4.70;99.90;;;;;;5016280;28;20157;-50
2023/01/27 10:52:21;;;;;;;10.33;7.40;;;4.70;99.90;;;;;;5019183;28;20621;-51
2023/01/27 10:55:02;;;;;;;14.20;10.53;;;4.70;99.90;;;;;;5019625;28;20165;-51
2023/01/27 10:57:38;;;;;;;13.20;10.23;;;4.70;99.90;;;;;;5037618;28;20172;-52
2023/01/27 11:00:18;;;;;;;10.97;8.07;;;4.70;99.90;;;;;;5037598;28;20605;-52
2023/01/27 11:02:56;;;;;;;13.53;10.13;;;4.80;99.90;;;;;;5037146;28;20258;-51
2023/01/27 11:05:35;;;;;;;14.63;9.63;;;4.80;99.90;;;;;;5021171;28;20168;-51
2023/01/27 11:08:25;;;;;;;14.47;10.80;;;4.80;99.90;;;;;;5037202;28;20168;-51
2023/01/27 11:13:39;;;;;;;9.70;7.70;;;4.90;99.90;;;;;;5037093;28;20258;-53
2023/01/27 11:16:13;;;;;;;12.93;9.03;;;4.90;99.90;;;;;;5037280;28;20177;-51
2023/01/27 11:18:42;;;;;;;12.60;9.83;;;4.90;99.90;;;;;;5003515;28;20233;-52
2023/01/27 11:21:34;;;;;;;12.93;9.80;;;4.90;99.90;;;;;;5019121;28;20180;-50
2023/01/27 11:24:24;;;;;;;13.87;9.93;;;5.00;99.90;;;;;;5033983;28;20205;-52
2023/01/27 11:27:09;;;;;;;14.53;9.60;;;5.00;99.90;;;;;;5037050;28;20189;-52
2023/01/27 11:29:41;;;;;;;12.47;9.30;;;5.00;99.90;;;;;;5037479;28;20162;-49
2023/01/27 11:32:27;;;;;;;12.27;8.70;;;5.00;99.90;;;;;;5019338;28;20614;-49
2023/01/27 11:35:10;;;;;;;10.17;8.10;;;5.00;99.90;;;;;;5003062;28;20203;-51
2023/01/27 11:37:41;;;;;;;9.13;7.63;;;5.00;99.90;;;;;;5037035;28;20168;-50
2023/01/27 11:40:25;;;;;;;8.47;6.83;;;5.00;99.90;;;;;;5037185;28;20181;-52
2023/01/27 11:42:51;;;;;;;8.23;5.93;;;5.00;99.90;;;;;;5036542;28;20209;-50
2023/01/27 11:45:19;;;;;;;8.97;7.17;;;5.00;99.90;;;;;;5019325;28;20604;-51
2023/01/27 11:47:49;;;;;;;8.63;7.07;;;5.00;99.90;;;;;;5036254;28;20177;-50
2023/01/27 11:50:20;;;;;;;10.23;7.10;;;5.00;99.90;;;;;;5036362;28;20174;-50
2023/01/27 11:53:04;;;;;;;7.50;5.83;;;5.10;99.90;;;;;;5018458;28;20235;-50
2023/01/27 11:55:36;;;;;;;13.00;5.97;;;5.10;99.90;;;;;;5036804;28;20167;-52
2023/01/27 11:58:50;;;;;;;9.90;6.73;;;5.10;99.90;;;;;;5036715;28;20172;-49
2023/01/27 12:01:22;;;;;;;9.30;7.20;;;5.10;99.90;;;;;;4973990;28;20219;-50
2023/01/27 12:04:13;;;;;;;10.77;7.57;;;5.10;99.90;;;;;;5017235;28;20252;-50
2023/01/27 12:06:50;;;;;;;10.37;7.20;;;5.10;99.90;;;;;;5035902;28;20173;-49
2023/01/27 12:09:38;;;;;;;9.87;7.77;;;5.10;99.90;;;;;;5018166;28;20227;-48
2023/01/27 12:12:13;;;;;;;10.03;8.30;;;5.00;99.90;;;;;;5017961;28;20204;-50
2023/01/27 12:15:05;;;;;;;8.10;6.70;;;5.10;99.90;;;;;;5018099;28;20260;-50
2023/01/27 12:17:39;;;;;;;10.40;7.40;;;5.00;99.90;;;;;;5014897;28;20189;-50
2023/01/27 12:20:22;;;;;;;10.13;7.30;;;5.00;99.90;;;;;;5002191;28;20187;-51
2023/01/27 12:22:51;;;;;;;9.33;7.50;;;5.00;99.90;;;;;;5017712;28;20284;-50
2023/01/27 12:25:23;;;;;;;14.70;8.27;;;5.00;99.90;;;;;;5017805;28;20228;-49
2023/01/27 12:27:53;;;;;;;9.50;7.60;;;5.00;99.90;;;;;;5017845;28;20211;-49
2023/01/27 12:30:23;;;;;;;9.17;6.70;;;5.10;99.90;;;;;;5035889;28;20161;-49
2023/01/27 12:32:50;;;;;;;8.77;6.50;;;5.00;99.90;;;;;;5017915;28;20289;-51
2023/01/27 12:35:34;;;;;;;10.27;7.43;;;5.00;99.90;;;;;;5035480;28;20528;-50
2023/01/27 12:38:11;;;;;;;10.03;7.50;;;5.00;99.90;;;;;;5017564;28;20599;-51
2023/01/27 12:40:40;;;;;;;9.03;6.00;;;5.10;99.90;;;;;;5035608;28;20251;-49
2023/01/27 12:43:18;;;;;;;10.53;7.30;;;5.10;99.90;;;;;;5017244;28;20245;-49
2023/01/27 12:46:10;;;;;;;12.47;7.93;;;5.10;99.90;;;;;;5035180;28;20180;-50
2023/01/27 12:48:48;;;;;;;10.27;7.50;;;5.10;99.90;;;;;;5017407;28;20177;-50
2023/01/27 12:51:18;;;;;;;11.73;7.93;;;5.10;99.90;;;;;;5035166;28;20164;-51
2023/01/27 12:53:44;;;;;;;10.13;7.33;;;5.10;99.90;;;;;;5034863;28;20199;-50
2023/01/27 12:56:13;;;;;;;10.93;7.53;;;5.10;99.90;;;;;;5035021;28;20179;-50
2023/01/27 12:58:54;;;;;;;8.83;7.57;;;5.10;99.90;;;;;;5035285;28;20592;-52
2023/01/27 13:01:19;;;;;;;10.57;7.73;;;5.10;99.90;;;;;;5034874;28;20207;-50
2023/01/27 13:03:49;;;;;;;9.40;7.53;;;5.10;99.90;;;;;;5034728;28;20289;-51
2023/01/27 13:06:17;;;;;;;12.77;8.03;;;5.10;99.90;;;;;;5017093;28;20177;-50
2023/01/27 13:08:45;;;;;;;10.17;7.83;;;5.10;99.90;;;;;;5017062;28;20284;-50
2023/01/27 13:11:12;;;;;;;10.27;7.30;;;5.10;99.90;;;;;;5035235;28;20183;-50
2023/01/27 13:13:48;;;;;;;9.77;7.10;;;5.10;99.90;;;;;;5016513;28;20237;-51
2023/01/27 13:16:26;;;;;;;10.30;7.97;;;5.10;99.90;;;;;;5016530;28;20293;-50
2023/01/27 13:18:57;;;;;;;9.97;7.70;;;5.10;99.90;;;;;;5016864;28;20206;-49
2023/01/27 13:21:35;;;;;;;11.57;8.77;;;5.00;99.90;;;;;;5034855;28;20266;-49
2023/01/27 13:24:05;;;;;;;13.10;7.57;;;5.00;99.90;;;;;;5034511;28;20174;-50
2023/01/27 13:26:33;;;;;;;11.27;8.77;;;5.00;99.90;;;;;;5016711;28;20259;-50
2023/01/27 13:29:07;;;;;;;11.47;8.60;;;5.00;99.90;;;;;;5034634;28;20206;-50
2023/01/27 13:32:03;;;;;;;11.80;8.83;;;5.00;99.90;;;;;;5016660;28;20202;-49